createdAt,value
2022-11-12T00:01:01.676Z,56.62
2022-11-12T00:03:28.488Z,56.53
2022-11-12T00:05:55.331Z,56.84
2022-11-12T00:08:22.827Z,56.57
2022-11-12T00:10:49.742Z,56.77
2022-11-12T00:13:16.617Z,56.68
2022-11-12T00:15:43.391Z,56.77
2022-11-12T00:18:10.280Z,56.69
2022-11-12T00:20:37.135Z,56.75
2022-11-12T00:23:04.015Z,56.51
2022-11-12T00:25:31.110Z,56.81
2022-11-12T00:28:03.282Z,56.50
2022-11-12T00:30:30.110Z,56.49
2022-11-12T00:32:56.980Z,56.79
2022-11-12T00:35:23.761Z,56.63
2022-11-12T00:37:57.729Z,56.64
2022-11-12T00:40:25.335Z,56.98
2022-11-12T00:42:52.966Z,56.64
2022-11-12T00:45:20.795Z,57.03
2022-11-12T00:47:47.625Z,57.03
2022-11-12T00:50:15.944Z,57.11
2022-11-12T00:52:42.994Z,56.79
2022-11-12T00:55:09.958Z,57.02
2022-11-12T00:57:36.765Z,56.98
2022-11-12T01:00:06.558Z,57.04
2022-11-12T01:02:40.684Z,56.98
2022-11-12T01:05:10.429Z,56.95
2022-11-12T01:07:37.288Z,56.92
2022-11-12T01:10:04.949Z,57.05
2022-11-12T01:12:32.563Z,57.26
2022-11-12T01:14:59.829Z,57.26
2022-11-12T01:17:26.665Z,57.23
2022-11-12T01:19:53.546Z,57.31
2022-11-12T01:22:20.313Z,57.17
2022-11-12T01:24:47.115Z,57.24
2022-11-12T01:27:14.089Z,57.14
2022-11-12T01:29:41.120Z,57.61
2022-11-12T01:32:08.036Z,57.18
2022-11-12T01:34:34.994Z,57.37
2022-11-12T01:37:01.753Z,57.50
2022-11-12T01:39:28.512Z,57.80
2022-11-12T01:41:55.313Z,57.59
2022-11-12T01:44:26.731Z,57.97
2022-11-12T01:47:29.494Z,57.88
2022-11-12T01:50:26.061Z,57.67
2022-11-12T01:53:01.151Z,57.68
2022-11-12T01:55:32.853Z,57.63
2022-11-12T01:58:10.902Z,57.54
2022-11-12T02:00:37.742Z,57.89
2022-11-12T02:03:13.068Z,57.63
2022-11-12T02:05:41.816Z,57.77
2022-11-12T02:08:11.054Z,57.89
2022-11-12T02:10:40.277Z,57.88
2022-11-12T02:13:26.891Z,57.63
2022-11-12T02:15:53.759Z,57.68
2022-11-12T02:18:20.531Z,57.63
2022-11-12T02:20:59.540Z,57.50
2022-11-12T02:23:26.340Z,57.83
2022-11-12T02:25:53.109Z,58.02
2022-11-12T02:28:19.978Z,57.77
2022-11-12T02:30:49.667Z,57.66
2022-11-12T02:33:16.732Z,57.58
2022-11-12T02:35:43.552Z,57.68
2022-11-12T02:38:10.557Z,57.91
2022-11-12T02:40:37.445Z,57.74
2022-11-12T02:43:04.416Z,57.98
2022-11-12T02:45:32.066Z,57.79
2022-11-12T02:47:59.537Z,58.04
2022-11-12T02:50:26.319Z,57.79
2022-11-12T02:52:53.083Z,57.67
2022-11-12T02:55:19.909Z,57.79
2022-11-12T02:57:46.671Z,57.90
2022-11-12T03:00:14.037Z,57.56
2022-11-12T03:02:42.698Z,57.60
2022-11-12T03:05:11.524Z,57.52
2022-11-12T03:07:39.082Z,57.59
2022-11-12T03:10:06.659Z,57.82
2022-11-12T03:12:33.454Z,57.66
2022-11-12T03:15:00.241Z,57.55
2022-11-12T03:17:27.019Z,57.86
2022-11-12T03:19:53.796Z,57.57
2022-11-12T03:22:20.552Z,57.42
2022-11-12T03:24:47.299Z,57.40
2022-11-12T03:27:14.077Z,57.58
2022-11-12T03:29:40.829Z,57.05
2022-11-12T03:32:07.592Z,56.96
2022-11-12T03:34:34.407Z,57.00
2022-11-12T03:37:01.193Z,57.12
2022-11-12T03:39:27.975Z,57.38
2022-11-12T03:41:54.726Z,57.08
2022-11-12T03:44:21.823Z,57.17
2022-11-12T03:46:48.667Z,57.26
2022-11-12T03:49:15.439Z,56.97
2022-11-12T03:51:42.467Z,56.99
2022-11-12T03:54:09.330Z,57.09
2022-11-12T03:56:36.100Z,57.03
2022-11-12T03:59:02.960Z,57.08
2022-11-12T04:01:29.774Z,57.00
2022-11-12T04:03:56.565Z,56.79
2022-11-12T04:06:42.176Z,57.00
2022-11-12T04:09:09.048Z,57.21
2022-11-12T04:11:35.822Z,57.19
2022-11-12T04:14:02.680Z,57.01
2022-11-12T04:16:47.976Z,57.28
2022-11-12T04:19:33.075Z,57.17
2022-11-12T04:22:10.317Z,56.95
2022-11-12T04:24:59.163Z,57.24
2022-11-12T04:27:29.797Z,56.88
2022-11-12T04:30:16.010Z,57.30
2022-11-12T04:32:50.403Z,56.97
2022-11-12T04:35:19.040Z,57.33
2022-11-12T04:37:46.480Z,57.01
2022-11-12T04:40:37.137Z,57.11
2022-11-12T04:43:24.724Z,57.05
2022-11-12T04:45:53.838Z,57.02
2022-11-12T04:48:22.294Z,57.30
2022-11-12T04:50:54.753Z,56.93
2022-11-12T04:53:21.863Z,56.86
2022-11-12T04:55:54.055Z,57.05
2022-11-12T04:58:21.743Z,57.17
2022-11-12T05:00:50.243Z,57.03
2022-11-12T05:03:17.893Z,56.95
2022-11-12T05:05:44.656Z,56.84
2022-11-12T05:08:11.438Z,57.03
2022-11-12T05:10:38.247Z,57.12
2022-11-12T05:13:05.018Z,56.99
2022-11-12T05:15:31.793Z,57.08
2022-11-12T05:17:58.603Z,57.10
2022-11-12T05:20:25.366Z,57.10
2022-11-12T05:23:05.784Z,56.80
2022-11-12T05:25:35.738Z,56.77
2022-11-12T05:28:02.561Z,57.10
2022-11-12T05:30:29.350Z,56.93
2022-11-12T05:32:56.090Z,56.95
2022-11-12T05:35:22.846Z,57.13
2022-11-12T05:37:49.688Z,57.03
2022-11-12T05:40:16.513Z,56.55
2022-11-12T05:42:44.741Z,57.06
2022-11-12T05:45:11.535Z,56.77
2022-11-12T05:47:38.305Z,57.07
2022-11-12T05:50:05.609Z,56.97
2022-11-12T05:52:32.392Z,56.76
2022-11-12T05:54:59.201Z,57.06
2022-11-12T05:57:27.728Z,56.78
2022-11-12T05:59:54.494Z,56.79
2022-11-12T06:02:21.407Z,56.77
2022-11-12T06:04:48.275Z,57.22
2022-11-12T06:07:15.123Z,57.18
2022-11-12T06:09:41.949Z,57.20
2022-11-12T06:12:08.717Z,57.26
2022-11-12T06:14:35.481Z,56.91
2022-11-12T06:17:02.244Z,57.22
2022-11-12T06:19:29.005Z,57.14
2022-11-12T06:21:55.788Z,57.05
2022-11-12T06:24:22.664Z,57.12
2022-11-12T06:26:49.618Z,57.17
2022-11-12T06:29:16.403Z,57.10
2022-11-12T06:31:43.153Z,57.01
2022-11-12T06:34:09.939Z,57.17
2022-11-12T06:36:36.717Z,57.35
2022-11-12T06:39:03.792Z,57.11
2022-11-12T06:41:30.567Z,56.88
2022-11-12T06:43:57.315Z,57.07
2022-11-12T06:46:24.087Z,57.27
2022-11-12T06:48:50.858Z,56.96
2022-11-12T06:51:20.397Z,57.26
2022-11-12T06:53:47.888Z,57.45
2022-11-12T06:56:15.493Z,57.52
2022-11-12T06:58:42.629Z,57.32
2022-11-12T07:01:14.389Z,57.52
2022-11-12T07:03:42.267Z,57.59
2022-11-12T07:06:13.119Z,57.70
2022-11-12T07:08:40.673Z,57.60
2022-11-12T07:11:07.981Z,57.88
2022-11-12T07:13:35.980Z,57.63
2022-11-12T07:16:04.681Z,57.43
2022-11-12T07:18:32.448Z,57.73
2022-11-12T07:21:01.304Z,57.88
2022-11-12T07:23:30.317Z,57.82
2022-11-12T07:26:03.962Z,57.72
2022-11-12T07:28:31.400Z,58.27
2022-11-12T07:30:59.892Z,58.25
2022-11-12T07:33:28.076Z,58.37
2022-11-12T07:35:59.624Z,58.35
2022-11-12T07:38:27.847Z,58.36
2022-11-12T07:41:21.339Z,58.46
2022-11-12T07:43:50.593Z,58.66
2022-11-12T07:46:23.900Z,58.77
2022-11-12T07:48:51.680Z,59.11
2022-11-12T07:51:25.671Z,59.05
2022-11-12T07:53:58.905Z,59.20
2022-11-12T07:56:27.846Z,59.52
2022-11-12T07:58:54.612Z,59.75
2022-11-12T08:01:33.159Z,59.41
2022-11-12T08:04:02.600Z,59.92
2022-11-12T08:06:30.769Z,59.79
2022-11-12T08:09:00.458Z,59.52
2022-11-12T08:11:27.473Z,60.03
2022-11-12T08:13:54.385Z,59.55
2022-11-12T08:16:21.326Z,59.99
2022-11-12T08:18:48.167Z,59.80
2022-11-12T08:21:17.675Z,59.94
2022-11-12T08:23:45.055Z,60.02
2022-11-12T08:26:15.137Z,60.10
2022-11-12T08:28:41.951Z,59.97
2022-11-12T08:31:22.786Z,60.25
2022-11-12T08:33:50.131Z,60.70
2022-11-12T08:36:18.056Z,60.70
2022-11-12T08:38:45.304Z,60.48
2022-11-12T08:41:14.446Z,60.60
2022-11-12T08:43:42.621Z,60.79
2022-11-12T08:46:09.901Z,60.99
2022-11-12T08:48:37.153Z,60.98
2022-11-12T08:51:20.413Z,60.98
2022-11-12T08:53:47.411Z,61.07
2022-11-12T08:56:14.369Z,60.77
2022-11-12T08:58:41.185Z,60.79
2022-11-12T09:01:08.881Z,61.28
2022-11-12T09:03:35.764Z,60.71
2022-11-12T09:06:05.283Z,60.94
2022-11-12T09:08:34.701Z,60.78
2022-11-12T09:11:01.708Z,60.99
2022-11-12T09:13:28.967Z,60.94
2022-11-12T09:16:01.586Z,60.78
2022-11-12T09:18:29.136Z,60.80
2022-11-12T09:21:01.336Z,60.67
2022-11-12T09:23:28.203Z,60.83
2022-11-12T09:25:56.845Z,60.47
2022-11-12T09:28:24.564Z,60.38
2022-11-12T09:30:53.588Z,59.89
2022-11-12T09:33:31.243Z,59.88
2022-11-12T09:36:01.859Z,59.50
2022-11-12T09:38:28.974Z,59.74
2022-11-12T09:41:10.905Z,59.36
2022-11-12T09:43:45.244Z,59.50
2022-11-12T09:46:28.287Z,60.08
2022-11-12T09:49:11.470Z,60.10
2022-11-12T09:51:48.385Z,59.92
2022-11-12T09:54:31.955Z,59.98
2022-11-12T09:56:58.883Z,59.74
2022-11-12T09:59:44.289Z,59.63
2022-11-12T10:02:55.497Z,59.47
2022-11-12T10:05:42.254Z,59.48
2022-11-12T10:08:34.317Z,59.23
2022-11-12T10:12:04.599Z,59.32
2022-11-12T10:15:39.501Z,59.46
2022-11-12T10:18:37.955Z,59.23
2022-11-12T10:21:34.894Z,59.28
2022-11-12T10:24:03.539Z,59.24
2022-11-12T10:26:32.378Z,59.15
2022-11-12T10:29:19.966Z,58.96
2022-11-12T10:31:46.747Z,58.78
2022-11-12T10:34:13.398Z,58.77
2022-11-12T10:37:01.854Z,58.57
2022-11-12T10:39:34.319Z,58.68
2022-11-12T10:42:11.783Z,58.53
2022-11-12T10:44:40.050Z,58.56
2022-11-12T10:47:27.949Z,58.66
2022-11-12T10:50:20.926Z,58.60
2022-11-12T10:53:06.643Z,58.85
2022-11-12T10:55:37.652Z,58.79
2022-11-12T10:58:10.185Z,58.61
2022-11-12T11:01:03.286Z,58.66
2022-11-12T11:03:35.057Z,58.45
2022-11-12T11:06:22.887Z,58.50
2022-11-12T11:08:52.730Z,58.49
2022-11-12T11:11:31.659Z,58.66
2022-11-12T11:14:34.807Z,58.64
2022-11-12T11:17:08.355Z,58.48
2022-11-12T11:19:41.735Z,58.40
2022-11-12T11:22:37.053Z,58.45
2022-11-12T11:25:27.978Z,58.38
2022-11-12T11:28:18.628Z,58.45
2022-11-12T11:31:06.721Z,58.46
2022-11-12T11:34:02.453Z,58.53
2022-11-12T11:36:59.491Z,58.39
2022-11-12T11:39:53.893Z,58.70
2022-11-12T11:42:41.866Z,58.35
2022-11-12T11:45:17.570Z,58.43
2022-11-12T11:48:01.508Z,58.30
2022-11-12T11:50:37.199Z,58.26
2022-11-12T11:53:16.222Z,58.14
2022-11-12T11:56:02.648Z,57.91
2022-11-12T11:58:59.755Z,57.67
2022-11-12T12:02:15.749Z,57.86
2022-11-12T12:04:50.479Z,57.87
2022-11-12T12:07:48.102Z,57.84
2022-11-12T12:11:07.019Z,57.59
2022-11-12T12:14:04.631Z,57.72
2022-11-12T12:16:37.695Z,57.60
2022-11-12T12:19:38.423Z,57.62
2022-11-12T12:22:16.073Z,57.20
2022-11-12T12:24:51.424Z,57.10
2022-11-12T12:27:24.769Z,56.96
2022-11-12T12:29:58.587Z,56.97
2022-11-12T12:32:50.842Z,56.68
2022-11-12T12:35:31.408Z,56.84
2022-11-12T12:38:25.485Z,56.92
2022-11-12T12:41:07.001Z,56.87
2022-11-12T12:43:55.144Z,56.99
2022-11-12T12:46:27.209Z,56.74
2022-11-12T12:48:56.291Z,56.38
2022-11-12T12:51:23.632Z,56.38
2022-11-12T12:53:50.424Z,56.23
2022-11-12T12:56:42.344Z,56.02
2022-11-12T12:59:24.807Z,56.07
2022-11-12T13:02:21.123Z,56.25
2022-11-12T13:04:52.926Z,56.18
2022-11-12T13:07:43.506Z,56.14
2022-11-12T13:10:41.405Z,56.19
2022-11-12T13:13:17.405Z,55.99
2022-11-12T13:15:47.554Z,56.12
2022-11-12T13:18:39.621Z,56.15
2022-11-12T13:21:22.212Z,55.89
2022-11-12T13:24:09.998Z,55.85
2022-11-12T13:26:39.665Z,55.93
2022-11-12T13:29:41.309Z,55.81
2022-11-12T13:32:33.967Z,55.71
2022-11-12T13:35:21.642Z,55.76
2022-11-12T13:38:15.754Z,55.98
2022-11-12T13:41:16.668Z,55.97
2022-11-12T13:43:47.321Z,55.72
2022-11-12T13:46:23.744Z,55.67
2022-11-12T13:49:06.857Z,55.68
2022-11-12T13:51:44.341Z,55.56
2022-11-12T13:54:43.677Z,55.61
2022-11-12T13:57:37.007Z,55.48
2022-11-12T14:00:20.795Z,55.62
2022-11-12T14:03:08.155Z,55.34
2022-11-12T14:05:37.918Z,55.39
2022-11-12T14:08:55.788Z,55.48
2022-11-12T14:11:42.049Z,55.46
2022-11-12T14:14:46.161Z,55.52
2022-11-12T14:17:35.831Z,55.37
2022-11-12T14:20:30.405Z,55.41
2022-11-12T14:23:04.579Z,55.26
2022-11-12T14:25:31.868Z,55.06
2022-11-12T14:27:58.640Z,54.85
2022-11-12T14:30:32.342Z,54.73
2022-11-12T14:33:10.871Z,54.94
2022-11-12T14:35:39.665Z,54.74
2022-11-12T14:38:09.300Z,54.52
2022-11-12T14:40:42.328Z,54.52
2022-11-12T14:43:27.274Z,54.63
2022-11-12T14:45:56.980Z,54.49
2022-11-12T14:48:24.125Z,54.32
2022-11-12T14:50:59.830Z,54.14
2022-11-12T14:53:33.618Z,54.28
2022-11-12T14:56:03.971Z,54.38
2022-11-12T14:58:32.192Z,54.37
2022-11-12T15:00:59.071Z,54.39
2022-11-12T15:03:32.317Z,54.32
2022-11-12T15:06:11.390Z,54.48
2022-11-12T15:08:43.410Z,54.68
2022-11-12T15:11:32.073Z,54.69
2022-11-12T15:14:03.857Z,54.72
2022-11-12T15:16:36.111Z,54.61
2022-11-12T15:19:25.889Z,54.80
2022-11-12T15:22:01.055Z,54.76
2022-11-12T15:24:33.868Z,54.97
2022-11-12T15:27:27.646Z,55.22
2022-11-12T15:30:16.058Z,55.02
2022-11-12T15:32:43.251Z,55.09
2022-11-12T15:35:25.348Z,55.27
2022-11-12T15:37:52.702Z,55.31
2022-11-12T15:40:21.861Z,55.40
2022-11-12T15:42:48.963Z,55.13
2022-11-12T15:45:18.190Z,55.45
2022-11-12T15:47:45.356Z,55.64
2022-11-12T15:50:23.895Z,55.55
2022-11-12T15:52:51.255Z,55.60
2022-11-12T15:55:18.892Z,55.66
2022-11-12T15:57:52.412Z,55.58
2022-11-12T16:00:22.150Z,55.84
2022-11-12T16:02:59.381Z,55.69
2022-11-12T16:05:26.625Z,55.93
2022-11-12T16:07:53.400Z,55.89
2022-11-12T16:10:20.227Z,55.81
2022-11-12T16:12:48.007Z,55.96
2022-11-12T16:15:18.399Z,55.88
2022-11-12T16:17:46.754Z,56.05
2022-11-12T16:20:21.207Z,56.05
2022-11-12T16:22:48.671Z,56.19
2022-11-12T16:25:16.442Z,56.04
2022-11-12T16:27:43.386Z,56.10
2022-11-12T16:30:20.499Z,56.18
2022-11-12T16:32:50.421Z,56.23
2022-11-12T16:35:17.866Z,56.43
2022-11-12T16:37:46.462Z,56.24
2022-11-12T16:40:20.292Z,56.22
2022-11-12T16:42:47.084Z,56.30
2022-11-12T16:45:20.359Z,56.17
2022-11-12T16:47:53.880Z,56.44
2022-11-12T16:50:26.114Z,56.38
2022-11-12T16:52:53.693Z,56.21
2022-11-12T16:55:21.368Z,56.67
2022-11-12T16:57:48.153Z,56.68
2022-11-12T17:00:18.112Z,56.39
2022-11-12T17:02:48.311Z,56.56
2022-11-12T17:05:24.452Z,56.62
2022-11-12T17:07:57.069Z,56.45
2022-11-12T17:10:25.382Z,56.64
2022-11-12T17:12:52.867Z,56.50
2022-11-12T17:15:20.156Z,56.63
2022-11-12T17:17:47.012Z,56.72
2022-11-12T17:20:14.075Z,56.61
2022-11-12T17:22:40.856Z,56.45
2022-11-12T17:25:08.584Z,56.53
2022-11-12T17:27:35.373Z,56.75
2022-11-12T17:30:03.640Z,56.64
2022-11-12T17:32:30.435Z,56.53
2022-11-12T17:34:57.202Z,56.51
2022-11-12T17:37:23.979Z,56.46
2022-11-12T17:39:50.888Z,56.59
2022-11-12T17:42:17.743Z,56.74
2022-11-12T17:44:46.145Z,56.69
2022-11-12T17:47:13.146Z,56.53
2022-11-12T17:49:40.018Z,56.60
2022-11-12T17:52:06.845Z,56.74
2022-11-12T17:54:34.418Z,56.70
2022-11-12T17:57:01.303Z,56.50
2022-11-12T17:59:28.106Z,56.79
2022-11-12T18:01:54.869Z,56.69
2022-11-12T18:04:23.742Z,56.40
2022-11-12T18:06:50.914Z,56.76
2022-11-12T18:09:17.883Z,56.50
2022-11-12T18:11:53.988Z,56.70
2022-11-12T18:14:22.596Z,56.66
2022-11-12T18:16:49.823Z,56.38
2022-11-12T18:19:16.708Z,56.69
2022-11-12T18:21:43.493Z,56.57
2022-11-12T18:24:15.560Z,56.64
2022-11-12T18:26:44.040Z,56.38
2022-11-12T18:29:12.421Z,56.71
2022-11-12T18:31:40.414Z,56.61
2022-11-12T18:34:08.963Z,56.56
2022-11-12T18:36:35.873Z,56.49
2022-11-12T18:39:04.710Z,56.70
2022-11-12T18:41:33.218Z,56.88
2022-11-12T18:44:02.018Z,56.62
2022-11-12T18:46:28.838Z,56.68
2022-11-12T18:48:55.646Z,56.34
2022-11-12T18:51:22.473Z,56.62
2022-11-12T18:53:49.245Z,56.70
2022-11-12T18:56:21.902Z,56.74
2022-11-12T18:58:48.789Z,56.57
2022-11-12T19:01:22.242Z,56.30
2022-11-12T19:03:53.780Z,56.51
2022-11-12T19:06:21.126Z,56.58
2022-11-12T19:08:48.052Z,56.54
2022-11-12T19:11:18.584Z,56.71
2022-11-12T19:13:45.409Z,56.62
2022-11-12T19:16:17.042Z,56.71
2022-11-12T19:18:44.854Z,56.87
2022-11-12T19:21:23.892Z,56.95
2022-11-12T19:23:54.551Z,56.98
2022-11-12T19:26:23.779Z,57.15
2022-11-12T19:28:50.568Z,56.72
2022-11-12T19:31:24.313Z,56.88
2022-11-12T19:33:51.465Z,57.34
2022-11-12T19:36:22.133Z,57.08
2022-11-12T19:38:57.635Z,57.14
2022-11-12T19:41:25.414Z,57.16
2022-11-12T19:43:52.853Z,57.12
2022-11-12T19:46:20.502Z,56.93
2022-11-12T19:48:47.450Z,57.13
2022-11-12T19:51:14.451Z,57.13
2022-11-12T19:53:46.444Z,56.88
2022-11-12T19:56:17.042Z,57.13
2022-11-12T19:58:48.728Z,56.82
2022-11-12T20:01:18.532Z,56.80
2022-11-12T20:03:45.801Z,57.00
2022-11-12T20:06:18.086Z,56.91
2022-11-12T20:08:45.608Z,57.15
2022-11-12T20:11:13.423Z,56.80
2022-11-12T20:13:40.510Z,56.72
2022-11-12T20:16:11.170Z,56.95
2022-11-12T20:18:37.973Z,56.70
2022-11-12T20:21:05.838Z,56.90
2022-11-12T20:23:36.212Z,57.15
2022-11-12T20:26:14.249Z,57.09
2022-11-12T20:28:43.021Z,57.28
2022-11-12T20:31:16.884Z,56.96
2022-11-12T20:33:43.696Z,57.00
2022-11-12T20:36:13.954Z,57.14
2022-11-12T20:38:43.216Z,56.88
2022-11-12T20:41:36.472Z,57.26
2022-11-12T20:44:03.317Z,56.98
2022-11-12T20:46:30.134Z,57.07
2022-11-12T20:48:56.970Z,57.09
2022-11-12T20:51:28.504Z,57.15
2022-11-12T20:53:59.910Z,56.99
2022-11-12T20:56:29.881Z,57.21
2022-11-12T20:58:58.201Z,57.12
2022-11-12T21:01:27.281Z,57.47
2022-11-12T21:03:54.765Z,57.24
2022-11-12T21:06:25.965Z,57.36
2022-11-12T21:08:53.310Z,57.10
2022-11-12T21:11:23.476Z,57.36
2022-11-12T21:13:50.292Z,57.27
2022-11-12T21:16:17.291Z,57.32
2022-11-12T21:18:44.205Z,57.04
2022-11-12T21:21:14.940Z,57.31
2022-11-12T21:23:44.040Z,57.00
2022-11-12T21:26:19.320Z,57.05
2022-11-12T21:28:49.723Z,57.57
2022-11-12T21:31:22.559Z,57.36
2022-11-12T21:33:50.947Z,57.58
2022-11-12T21:36:18.379Z,57.67
2022-11-12T21:38:45.151Z,57.34
2022-11-12T21:41:22.039Z,57.17
2022-11-12T21:43:50.196Z,57.48
2022-11-12T21:46:23.656Z,57.47
2022-11-12T21:48:55.262Z,57.30
2022-11-12T21:51:25.841Z,57.35
2022-11-12T21:53:59.146Z,57.61
2022-11-12T21:56:27.458Z,57.63
2022-11-12T21:59:00.270Z,57.54
2022-11-12T22:01:30.068Z,57.78
2022-11-12T22:03:59.387Z,57.48
2022-11-12T22:06:29.492Z,57.57
2022-11-12T22:08:57.726Z,57.63
2022-11-12T22:11:25.468Z,57.32
2022-11-12T22:13:52.580Z,57.52
2022-11-12T22:16:22.584Z,57.31
2022-11-12T22:18:52.302Z,57.58
2022-11-12T22:21:35.579Z,57.53
2022-11-12T22:24:07.040Z,57.34
2022-11-12T22:26:33.891Z,57.87
2022-11-12T22:29:00.689Z,57.74
2022-11-12T22:31:32.436Z,57.84
2022-11-12T22:34:01.862Z,57.76
2022-11-12T22:36:31.390Z,57.91
2022-11-12T22:38:58.565Z,57.92
2022-11-12T22:41:28.626Z,57.67
2022-11-12T22:43:58.836Z,57.90
2022-11-12T22:46:33.533Z,57.69
2022-11-12T22:49:01.249Z,57.72
2022-11-12T22:51:31.283Z,57.76
2022-11-12T22:54:01.798Z,57.96
2022-11-12T22:56:29.557Z,58.01
2022-11-12T22:58:56.352Z,58.15
2022-11-12T23:01:27.146Z,57.82
2022-11-12T23:04:00.118Z,57.77
2022-11-12T23:06:29.091Z,58.21
2022-11-12T23:08:59.093Z,58.09
2022-11-12T23:11:26.226Z,58.31
2022-11-12T23:13:54.528Z,58.16
2022-11-12T23:16:32.037Z,58.26
2022-11-12T23:18:59.377Z,58.32
2022-11-12T23:21:29.039Z,58.21
2022-11-12T23:23:59.839Z,58.15
2022-11-12T23:26:31.031Z,58.29
2022-11-12T23:28:57.915Z,58.20
2022-11-12T23:31:29.507Z,58.14
2022-11-12T23:33:58.769Z,58.24
2022-11-12T23:36:26.680Z,58.46
2022-11-12T23:38:54.499Z,58.47
2022-11-12T23:41:25.623Z,58.31
2022-11-12T23:43:57.780Z,58.51
2022-11-12T23:46:25.156Z,58.63
2022-11-12T23:48:51.939Z,58.25
2022-11-12T23:51:21.211Z,58.13
2022-11-12T23:53:48.922Z,58.50
2022-11-12T23:56:19.626Z,58.41
2022-11-12T23:58:46.709Z,58.56
